Time;durP1;ratioP1;P1;durP2;ratioP2;P2;SDS_P1;SDS_P2;PMS_P1;PMS_P2;Temp;Humidity;BMP_temperature;BMP_pressure;BME280_temperature;BME280_humidity;BME280_pressure;Samples;Min_cycle;Max_cycle;Signal;HPM_P1;HPM_P2
2023/03/19 00:01:27;;;;;;;1.42;1.20;;;17.20;46.10;;;;;;5083168;28;45391;-68
2023/03/19 00:03:54;;;;;;;1.58;1.48;;;17.20;46.10;;;;;;5084528;27;45382;-67
2023/03/19 00:06:24;;;;;;;1.40;1.30;;;17.20;46.70;;;;;;5084500;27;45305;-67
2023/03/19 00:08:51;;;;;;;1.40;1.30;;;17.20;46.00;;;;;;5064411;28;45429;-68
2023/03/19 00:11:18;;;;;;;2.28;1.58;;;17.20;46.00;;;;;;5081439;27;45465;-66
2023/03/19 00:13:45;;;;;;;1.75;1.50;;;17.20;46.10;;;;;;5084089;28;45489;-67
2023/03/19 00:16:12;;;;;;;1.30;1.20;;;17.10;45.90;;;;;;5084274;27;45166;-69
2023/03/19 00:18:39;;;;;;;1.48;1.38;;;17.10;45.90;;;;;;5084732;27;45176;-66
2023/03/19 00:21:06;;;;;;;1.55;1.45;;;17.10;45.90;;;;;;5083884;27;47617;-67
2023/03/19 00:23:35;;;;;;;1.23;1.13;;;17.10;45.90;;;;;;5086210;27;45420;-68
2023/03/19 00:26:02;;;;;;;1.40;1.30;;;17.10;46.00;;;;;;5088099;27;45449;-67
2023/03/19 00:28:29;;;;;;;2.22;1.20;;;17.10;45.90;;;;;;5101214;27;45314;-67
2023/03/19 00:30:56;;;;;;;1.50;1.30;;;17.10;45.90;;;;;;5086994;27;45512;-66
2023/03/19 00:33:24;;;;;;;1.75;1.30;;;17.10;46.00;;;;;;5087562;27;45433;-67
2023/03/19 00:35:52;;;;;;;3.15;1.35;;;17.10;45.90;;;;;;5087904;27;45308;-65
2023/03/19 00:38:18;;;;;;;2.13;1.33;;;17.00;45.90;;;;;;5085711;27;45264;-66
2023/03/19 00:40:47;;;;;;;2.03;1.30;;;17.00;45.80;;;;;;5087179;27;46386;-66
2023/03/19 00:43:15;;;;;;;1.40;1.00;;;17.00;45.90;;;;;;5086666;27;45444;-67
2023/03/19 00:45:42;;;;;;;2.58;1.42;;;17.00;45.90;;;;;;5087678;27;45298;-67
2023/03/19 00:48:09;;;;;;;1.40;1.20;;;17.00;45.90;;;;;;5087710;27;45267;-66
2023/03/19 00:50:35;;;;;;;1.83;1.52;;;17.00;46.00;;;;;;5087312;27;45328;-67
2023/03/19 00:53:02;;;;;;;1.50;1.38;;;17.00;46.00;;;;;;5087267;27;45401;-70
2023/03/19 00:55:30;;;;;;;3.03;1.33;;;17.00;46.00;;;;;;5087518;27;45422;-67
2023/03/19 00:57:58;;;;;;;1.80;1.20;;;17.00;46.00;;;;;;5086862;27;45438;-68
2023/03/19 01:00:25;;;;;;;1.35;1.08;;;17.00;46.10;;;;;;5076313;28;46716;-67
2023/03/19 01:02:52;;;;;;;1.30;1.20;;;17.00;46.10;;;;;;5087120;27;45332;-67
2023/03/19 01:05:19;;;;;;;2.15;1.30;;;17.00;46.10;;;;;;5087204;27;45488;-66
2023/03/19 01:07:46;;;;;;;1.75;1.10;;;16.90;46.10;;;;;;5087317;27;45277;-67
2023/03/19 01:10:13;;;;;;;1.75;1.38;;;16.90;46.00;;;;;;5086718;27;46385;-67
2023/03/19 01:12:39;;;;;;;1.80;1.23;;;16.90;46.00;;;;;;5086105;27;45587;-67
2023/03/19 01:15:09;;;;;;;1.60;1.35;;;16.90;46.00;;;;;;5083857;27;45519;-67
2023/03/19 01:17:36;;;;;;;3.75;1.27;;;16.90;46.20;;;;;;5087456;27;45332;-67
2023/03/19 01:20:03;;;;;;;1.35;1.23;;;16.90;46.10;;;;;;5087100;27;46377;-67
2023/03/19 01:22:30;;;;;;;1.65;1.10;;;16.90;46.10;;;;;;5087034;27;45217;-67
2023/03/19 01:24:57;;;;;;;2.83;1.55;;;16.90;46.10;;;;;;5086954;27;45530;-67
2023/03/19 01:27:23;;;;;;;2.83;1.33;;;16.80;46.10;;;;;;5087232;27;45278;-67
2023/03/19 01:29:51;;;;;;;1.20;1.10;;;16.80;46.20;;;;;;5086757;27;45402;-68
2023/03/19 01:32:19;;;;;;;1.25;1.15;;;16.80;46.30;;;;;;5086810;27;45139;-67
2023/03/19 01:34:46;;;;;;;1.85;1.13;;;16.80;46.40;;;;;;5086944;27;45338;-67
2023/03/19 01:37:13;;;;;;;2.55;1.15;;;16.80;46.40;;;;;;5087110;27;45342;-67
2023/03/19 01:39:40;;;;;;;1.15;1.00;;;16.80;46.50;;;;;;5086777;27;45388;-68
2023/03/19 01:42:07;;;;;;;2.20;1.90;;;16.80;46.50;;;;;;5086692;27;45355;-67
2023/03/19 01:44:35;;;;;;;1.85;1.40;;;16.70;46.50;;;;;;5086843;27;45245;-67
2023/03/19 01:47:03;;;;;;;1.33;1.20;;;16.70;46.50;;;;;;5087047;27;45237;-68
2023/03/19 01:49:31;;;;;;;2.17;1.30;;;16.70;46.60;;;;;;5086650;27;47318;-67
2023/03/19 01:51:58;;;;;;;2.10;1.50;;;16.70;46.60;;;;;;5086478;28;45367;-67
2023/03/19 01:54:25;;;;;;;1.98;1.27;;;16.70;46.70;;;;;;5086840;27;45200;-68
2023/03/19 01:56:53;;;;;;;1.70;1.10;;;16.70;46.70;;;;;;5086825;27;45374;-68
2023/03/19 01:59:21;;;;;;;1.65;1.40;;;16.70;46.70;;;;;;5086320;27;45301;-68
2023/03/19 02:01:49;;;;;;;1.88;1.08;;;16.70;46.70;;;;;;5086395;27;45279;-68
2023/03/19 02:04:16;;;;;;;1.45;1.27;;;16.70;46.70;;;;;;5086581;27;45239;-67
2023/03/19 02:06:44;;;;;;;2.20;1.33;;;16.60;46.70;;;;;;5077513;27;45470;-68
2023/03/19 02:09:13;;;;;;;2.03;1.17;;;16.60;46.70;;;;;;5066040;28;46527;-67
2023/03/19 02:11:39;;;;;;;1.25;1.10;;;16.60;46.80;;;;;;5066220;28;45707;-67
2023/03/19 02:14:08;;;;;;;2.50;1.58;;;16.60;46.70;;;;;;5066171;28;45358;-68
2023/03/19 02:16:35;;;;;;;1.55;1.40;;;16.60;46.80;;;;;;5066480;28;45344;-66
2023/03/19 02:19:02;;;;;;;2.70;1.33;;;16.60;46.80;;;;;;5065863;28;46637;-67
2023/03/19 02:21:29;;;;;;;2.15;1.55;;;16.60;46.80;;;;;;5065693;28;45261;-67
2023/03/19 02:24:00;;;;;;;2.63;1.25;;;16.60;46.90;;;;;;5065730;28;45462;-67
2023/03/19 02:26:28;;;;;;;2.05;1.52;;;16.60;46.90;;;;;;5066066;28;45341;-66
2023/03/19 02:28:55;;;;;;;2.25;1.15;;;16.60;47.00;;;;;;5065725;28;46353;-66
2023/03/19 02:31:22;;;;;;;2.58;1.25;;;16.50;46.90;;;;;;5065511;28;45347;-68
2023/03/19 02:33:59;;;;;;;2.08;1.20;;;16.50;46.90;;;;;;5065901;28;45378;-68
2023/03/19 02:36:26;;;;;;;1.88;1.50;;;16.50;46.90;;;;;;5065814;28;45561;-68
2023/03/19 02:38:53;;;;;;;1.58;1.30;;;16.50;47.00;;;;;;5065362;28;46945;-66
2023/03/19 02:41:20;;;;;;;1.55;1.25;;;16.50;47.10;;;;;;5065360;28;45319;-66
2023/03/19 02:43:48;;;;;;;2.15;1.40;;;16.50;47.10;;;;;;5070745;28;45383;-66
2023/03/19 02:46:15;;;;;;;1.52;1.42;;;16.50;47.10;;;;;;5085386;27;45379;-66
2023/03/19 02:48:42;;;;;;;2.60;1.40;;;16.50;47.20;;;;;;5085769;27;46461;-66
2023/03/19 02:51:09;;;;;;;2.47;1.27;;;16.50;47.20;;;;;;5085671;27;45283;-68
2023/03/19 02:53:36;;;;;;;2.65;1.33;;;16.40;47.20;;;;;;5085726;27;45321;-66
2023/03/19 02:56:03;;;;;;;2.72;1.70;;;16.40;47.20;;;;;;5085946;27;45362;-68
2023/03/19 02:58:30;;;;;;;2.30;1.38;;;16.40;47.30;;;;;;5085489;27;45352;-67
2023/03/19 03:00:58;;;;;;;3.05;1.40;;;16.40;47.30;;;;;;5085386;27;45416;-68
2023/03/19 03:03:25;;;;;;;1.38;1.23;;;16.40;47.30;;;;;;5085735;27;45182;-65
2023/03/19 03:05:52;;;;;;;2.40;1.40;;;16.40;47.30;;;;;;5085691;27;45436;-69
2023/03/19 03:08:19;;;;;;;1.40;1.20;;;16.40;47.40;;;;;;5085341;27;45363;-68
2023/03/19 03:10:46;;;;;;;2.20;1.42;;;16.40;47.40;;;;;;5085296;27;45314;-66
2023/03/19 03:13:13;;;;;;;1.45;1.23;;;16.40;47.30;;;;;;5085387;27;45441;-66
2023/03/19 03:15:40;;;;;;;3.30;1.25;;;16.40;47.40;;;;;;5085611;27;45221;-68
2023/03/19 03:18:08;;;;;;;1.40;1.20;;;16.40;47.40;;;;;;5085227;27;46324;-67
2023/03/19 03:20:35;;;;;;;2.08;1.58;;;16.30;47.30;;;;;;5085172;27;45477;-67
2023/03/19 03:23:02;;;;;;;2.20;1.40;;;16.30;47.40;;;;;;5085355;27;45155;-68
2023/03/19 03:25:29;;;;;;;4.57;1.55;;;16.30;47.40;;;;;;5085199;27;45609;-67
2023/03/19 03:27:56;;;;;;;2.70;1.40;;;16.30;47.50;;;;;;5085020;27;46671;-68
2023/03/19 03:30:23;;;;;;;1.75;1.33;;;16.30;47.50;;;;;;5085026;27;45336;-68
2023/03/19 03:32:50;;;;;;;2.08;1.38;;;16.30;47.60;;;;;;5085190;27;45431;-67
2023/03/19 03:35:21;;;;;;;1.90;1.20;;;16.30;47.60;;;;;;5085499;27;45490;-67
2023/03/19 03:37:48;;;;;;;3.05;1.20;;;16.30;47.70;;;;;;5084954;27;46670;-68
2023/03/19 03:40:16;;;;;;;1.95;1.38;;;16.30;47.70;;;;;;5085047;27;45364;-67
2023/03/19 03:42:42;;;;;;;2.22;1.35;;;16.20;47.60;;;;;;5085167;27;45387;-68
2023/03/19 03:45:11;;;;;;;1.60;1.35;;;16.20;47.70;;;;;;5085356;27;45335;-67
2023/03/19 03:47:38;;;;;;;1.92;1.10;;;16.20;47.70;;;;;;5084856;27;45507;-68
2023/03/19 03:50:06;;;;;;;1.30;1.20;;;16.20;47.80;;;;;;5084794;27;45423;-66
2023/03/19 03:52:34;;;;;;;2.22;1.30;;;16.20;47.80;;;;;;5084875;27;45310;-66
2023/03/19 03:55:01;;;;;;;2.00;1.40;;;16.20;47.80;;;;;;5085240;27;45253;-66
2023/03/19 03:57:28;;;;;;;2.20;1.38;;;16.20;47.80;;;;;;5085355;27;47393;-66
2023/03/19 03:59:55;;;;;;;1.17;1.08;;;16.20;47.70;;;;;;5088317;27;45373;-66
2023/03/19 04:02:22;;;;;;;1.88;1.38;;;16.10;47.70;;;;;;5088633;27;45398;-66
2023/03/19 04:04:49;;;;;;;1.85;1.20;;;16.10;47.80;;;;;;5088633;27;45447;-66
2023/03/19 04:07:16;;;;;;;2.10;1.10;;;16.10;47.70;;;;;;5088210;27;47290;-67
2023/03/19 04:09:44;;;;;;;1.85;1.20;;;16.10;47.70;;;;;;5088246;27;45432;-67
2023/03/19 04:12:12;;;;;;;2.03;1.35;;;16.10;47.80;;;;;;5088320;27;45292;-67
2023/03/19 04:14:38;;;;;;;1.60;1.50;;;16.10;47.90;;;;;;5085835;27;45350;-66
2023/03/19 04:17:05;;;;;;;2.67;1.10;;;16.10;47.80;;;;;;5088015;27;45540;-66
2023/03/19 04:19:32;;;;;;;1.98;1.40;;;16.10;47.80;;;;;;5088124;27;45327;-67
2023/03/19 04:21:59;;;;;;;1.83;1.20;;;16.00;47.80;;;;;;5088108;27;45337;-66
2023/03/19 04:24:26;;;;;;;2.20;1.30;;;16.00;47.90;;;;;;5088197;27;45417;-67
2023/03/19 04:26:54;;;;;;;2.72;1.33;;;16.00;47.90;;;;;;5087917;27;45469;-66
2023/03/19 04:29:22;;;;;;;1.38;1.20;;;16.00;47.90;;;;;;5087956;27;45188;-67
2023/03/19 04:31:49;;;;;;;1.63;1.40;;;16.00;47.90;;;;;;5087982;27;45378;-66
2023/03/19 04:34:16;;;;;;;3.17;1.77;;;16.00;48.00;;;;;;5088132;27;45365;-66
2023/03/19 04:36:43;;;;;;;1.95;1.15;;;16.00;48.00;;;;;;5087892;27;46599;-66
2023/03/19 04:39:10;;;;;;;1.38;1.10;;;16.00;48.10;;;;;;5087684;27;45266;-66
2023/03/19 04:41:37;;;;;;;1.80;1.30;;;15.90;48.10;;;;;;5088001;27;45339;-66
2023/03/19 04:44:06;;;;;;;2.15;1.25;;;15.90;48.10;;;;;;5087895;27;45580;-66
2023/03/19 04:46:33;;;;;;;2.47;1.20;;;15.90;48.10;;;;;;5087578;27;45528;-66
2023/03/19 04:49:00;;;;;;;1.33;1.13;;;15.90;48.20;;;;;;5087658;27;45243;-66
2023/03/19 04:51:27;;;;;;;1.90;1.13;;;15.90;48.80;;;;;;5087632;27;45319;-66
2023/03/19 04:53:54;;;;;;;2.63;1.20;;;15.90;48.20;;;;;;5087762;27;45350;-66
2023/03/19 04:56:20;;;;;;;2.10;1.33;;;15.90;48.20;;;;;;5087592;27;45333;-66
2023/03/19 04:58:47;;;;;;;1.88;1.23;;;15.90;48.20;;;;;;5087415;27;45344;-66
2023/03/19 05:01:15;;;;;;;2.08;1.17;;;15.90;48.20;;;;;;5087428;27;45264;-68
2023/03/19 05:03:42;;;;;;;1.60;1.10;;;15.90;48.10;;;;;;5087806;27;45447;-66
2023/03/19 05:06:10;;;;;;;1.55;1.38;;;15.90;48.20;;;;;;5087340;27;45536;-66
2023/03/19 05:08:37;;;;;;;1.10;1.02;;;15.80;48.20;;;;;;5086922;27;45295;-66
2023/03/19 05:11:04;;;;;;;1.02;0.80;;;15.80;48.20;;;;;;5087008;28;45372;-66
2023/03/19 05:13:31;;;;;;;1.13;0.90;;;15.80;48.20;;;;;;5087633;27;45262;-66
2023/03/19 05:15:58;;;;;;;1.92;1.35;;;15.80;48.20;;;;;;5087212;27;46436;-66
2023/03/19 05:18:26;;;;;;;1.17;0.90;;;15.80;48.20;;;;;;5087219;27;45374;-66
2023/03/19 05:20:54;;;;;;;1.73;1.25;;;15.80;48.20;;;;;;5087135;27;45269;-66
2023/03/19 05:23:21;;;;;;;1.58;0.88;;;15.80;48.20;;;;;;5087499;27;45224;-67
2023/03/19 05:25:48;;;;;;;1.33;1.00;;;15.80;48.20;;;;;;5086977;27;46682;-66
2023/03/19 05:28:15;;;;;;;1.17;1.08;;;15.80;48.20;;;;;;5087062;27;45362;-66
2023/03/19 05:30:42;;;;;;;1.25;1.10;;;15.80;48.20;;;;;;5086993;27;45462;-67
2023/03/19 05:33:08;;;;;;;1.58;0.98;;;15.80;48.10;;;;;;5084595;27;45293;-66
2023/03/19 05:35:37;;;;;;;1.50;1.08;;;15.70;48.20;;;;;;5087107;27;46391;-66
2023/03/19 05:38:04;;;;;;;1.88;1.10;;;15.70;48.20;;;;;;5086873;27;45339;-65
2023/03/19 05:40:31;;;;;;;1.27;0.80;;;15.70;48.30;;;;;;5086848;27;45366;-67
2023/03/19 05:42:58;;;;;;;4.35;1.35;;;15.70;48.30;;;;;;5087222;27;45324;-67
2023/03/19 05:45:25;;;;;;;2.00;1.00;;;15.70;48.30;;;;;;5086639;27;45556;-67
2023/03/19 05:47:51;;;;;;;1.38;0.98;;;15.70;48.30;;;;;;5086827;27;45332;-67
2023/03/19 05:50:18;;;;;;;1.73;1.10;;;15.70;48.30;;;;;;5086784;27;45253;-67
2023/03/19 05:52:47;;;;;;;2.35;1.15;;;15.70;48.30;;;;;;5086945;27;45391;-67
2023/03/19 05:55:13;;;;;;;1.20;1.00;;;15.70;48.40;;;;;;5086360;27;45504;-67
2023/03/19 05:57:41;;;;;;;1.90;1.00;;;15.70;48.40;;;;;;5086793;27;45587;-67
2023/03/19 06:00:09;;;;;;;1.35;0.90;;;15.70;48.40;;;;;;5086701;27;45371;-66
2023/03/19 06:02:36;;;;;;;1.02;0.95;;;15.70;48.30;;;;;;5086666;27;45640;-66
2023/03/19 06:05:03;;;;;;;0.85;0.82;;;15.70;48.40;;;;;;5086456;27;45272;-66
2023/03/19 06:07:30;;;;;;;1.42;1.02;;;15.60;48.30;;;;;;5086383;27;45297;-67
2023/03/19 06:09:58;;;;;;;1.10;1.00;;;15.60;48.40;;;;;;5086561;27;45264;-66
2023/03/19 06:12:25;;;;;;;1.55;0.90;;;15.60;48.40;;;;;;5086639;27;45369;-66
2023/03/19 06:14:52;;;;;;;1.58;0.90;;;15.60;48.40;;;;;;5086136;27;45539;-67
2023/03/19 06:17:19;;;;;;;1.73;1.23;;;15.60;48.40;;;;;;5086220;27;45188;-66
2023/03/19 06:19:46;;;;;;;0.80;0.80;;;15.60;48.40;;;;;;5085789;27;45176;-67
2023/03/19 06:22:13;;;;;;;1.70;0.93;;;15.60;48.40;;;;;;5086079;27;45257;-66
2023/03/19 06:24:40;;;;;;;0.60;0.60;;;15.60;48.50;;;;;;5085792;27;46416;-67
2023/03/19 06:27:08;;;;;;;1.25;0.77;;;15.60;48.50;;;;;;5086245;27;45383;-66
2023/03/19 06:29:35;;;;;;;1.00;0.90;;;15.60;48.50;;;;;;5086382;27;45284;-66
2023/03/19 06:32:02;;;;;;;1.17;0.90;;;15.60;48.50;;;;;;5086159;27;45458;-67
2023/03/19 06:34:29;;;;;;;1.05;0.90;;;15.60;48.40;;;;;;5085683;27;45446;-68
2023/03/19 06:36:56;;;;;;;1.98;1.00;;;15.60;48.40;;;;;;5085918;27;45431;-67
2023/03/19 06:39:23;;;;;;;0.80;0.80;;;15.60;48.50;;;;;;5086264;27;45319;-67
2023/03/19 06:41:50;;;;;;;0.88;0.88;;;15.60;48.60;;;;;;5086562;27;45401;-65
2023/03/19 06:44:18;;;;;;;1.52;1.02;;;15.60;48.40;;;;;;5085725;27;46685;-68
2023/03/19 06:46:45;;;;;;;1.60;0.88;;;15.60;48.40;;;;;;5085846;27;45307;-67
2023/03/19 06:49:12;;;;;;;3.05;1.08;;;15.60;48.40;;;;;;5085913;27;45327;-68
2023/03/19 06:51:39;;;;;;;1.00;1.00;;;15.60;48.40;;;;;;5086257;27;45370;-67
2023/03/19 06:54:06;;;;;;;0.82;0.82;;;15.60;48.30;;;;;;5085544;27;45252;-68
2023/03/19 06:56:33;;;;;;;1.38;0.88;;;15.60;48.30;;;;;;5085644;27;45337;-67
2023/03/19 06:59:00;;;;;;;1.00;1.00;;;15.60;48.30;;;;;;5085712;27;45336;-67
2023/03/19 07:01:28;;;;;;;1.42;1.00;;;15.60;48.30;;;;;;5086007;27;45375;-67
2023/03/19 07:03:56;;;;;;;1.00;0.82;;;15.60;48.30;;;;;;5085314;27;46644;-65
2023/03/19 07:06:23;;;;;;;0.70;0.70;;;15.60;48.30;;;;;;5085668;27;45384;-68
2023/03/19 07:08:49;;;;;;;1.75;1.20;;;15.60;48.30;;;;;;5085676;27;45391;-67
2023/03/19 07:11:16;;;;;;;1.27;0.80;;;15.60;48.30;;;;;;5085664;27;45421;-67
2023/03/19 07:13:43;;;;;;;2.50;1.00;;;15.60;48.30;;;;;;5085115;27;45676;-68
2023/03/19 07:16:10;;;;;;;0.80;0.80;;;15.50;48.20;;;;;;5085748;27;45281;-67
2023/03/19 07:18:38;;;;;;;1.80;0.98;;;15.50;48.30;;;;;;5085448;27;45195;-67
2023/03/19 07:21:05;;;;;;;1.52;1.15;;;15.60;48.30;;;;;;5085377;27;45373;-67
2023/03/19 07:23:32;;;;;;;1.25;1.00;;;15.60;48.20;;;;;;5085176;27;46379;-67
2023/03/19 07:25:59;;;;;;;1.00;1.00;;;15.50;48.20;;;;;;5085142;27;45248;-67
2023/03/19 07:28:26;;;;;;;0.88;0.88;;;15.50;48.20;;;;;;5085234;27;45288;-67
2023/03/19 07:30:53;;;;;;;1.10;1.00;;;15.50;48.20;;;;;;5085396;27;45306;-67
2023/03/19 07:33:20;;;;;;;1.00;0.90;;;15.60;48.30;;;;;;5091476;27;45598;-66
2023/03/19 07:35:48;;;;;;;0.95;0.70;;;15.60;48.20;;;;;;5091770;27;45416;-67
2023/03/19 07:38:15;;;;;;;1.13;1.08;;;15.60;48.80;;;;;;5092188;27;45352;-67
2023/03/19 07:40:42;;;;;;;1.58;0.75;;;15.60;48.10;;;;;;5092052;27;45471;-67
2023/03/19 07:43:09;;;;;;;0.93;0.90;;;15.50;48.00;;;;;;5091692;27;46511;-67
2023/03/19 07:45:36;;;;;;;0.85;0.85;;;15.60;48.00;;;;;;5091676;27;45394;-67
2023/03/19 07:48:03;;;;;;;1.38;0.93;;;15.60;48.00;;;;;;5091962;27;45457;-67
2023/03/19 07:50:31;;;;;;;1.33;0.82;;;15.60;47.90;;;;;;5091996;27;45325;-67
2023/03/19 07:52:59;;;;;;;2.40;1.05;;;15.60;47.90;;;;;;5091617;27;45464;-67
2023/03/19 07:55:26;;;;;;;1.08;0.90;;;15.60;47.80;;;;;;5091878;27;45346;-67
2023/03/19 07:57:53;;;;;;;0.70;0.70;;;15.60;47.80;;;;;;5091864;27;45340;-69
2023/03/19 08:00:20;;;;;;;1.25;0.80;;;15.60;47.80;;;;;;5091886;27;45439;-67
2023/03/19 08:02:46;;;;;;;0.90;0.82;;;15.60;47.80;;;;;;5091549;27;45681;-68
2023/03/19 08:05:13;;;;;;;1.83;1.00;;;15.60;47.80;;;;;;5091503;27;45319;-67
2023/03/19 08:07:40;;;;;;;1.00;0.95;;;15.60;47.90;;;;;;5091566;27;45393;-68
2023/03/19 08:10:10;;;;;;;1.00;0.90;;;15.60;47.90;;;;;;5091733;27;45423;-67
2023/03/19 08:12:39;;;;;;;2.13;1.00;;;15.60;47.90;;;;;;5091145;27;46684;-67
2023/03/19 08:15:07;;;;;;;0.85;0.85;;;15.60;47.80;;;;;;5091207;27;45419;-65
2023/03/19 08:17:37;;;;;;;1.45;1.20;;;15.70;47.80;;;;;;5091571;27;45354;-65
2023/03/19 08:20:05;;;;;;;1.52;0.90;;;15.70;47.80;;;;;;5091818;27;45346;-66
2023/03/19 08:22:32;;;;;;;1.08;0.98;;;15.70;47.80;;;;;;5091108;27;46276;-65
2023/03/19 08:24:59;;;;;;;0.80;0.80;;;15.70;47.70;;;;;;5091087;27;45444;-65
2023/03/19 08:27:29;;;;;;;4.30;1.10;;;15.70;47.70;;;;;;5091338;27;45324;-66
2023/03/19 08:29:56;;;;;;;1.08;0.90;;;15.70;47.70;;;;;;5091586;27;45434;-65
2023/03/19 08:32:23;;;;;;;2.83;0.90;;;15.80;47.70;;;;;;5091224;27;46483;-65
2023/03/19 08:34:50;;;;;;;1.00;0.82;;;15.80;47.60;;;;;;5091111;27;45265;-65
2023/03/19 08:37:17;;;;;;;1.42;1.00;;;15.80;47.60;;;;;;5091557;27;45293;-66
2023/03/19 08:39:44;;;;;;;2.85;0.85;;;15.90;47.60;;;;;;5091419;27;45314;-66
2023/03/19 08:42:11;;;;;;;1.02;0.73;;;15.90;47.60;;;;;;5090860;27;46364;-66
2023/03/19 08:44:39;;;;;;;1.02;0.93;;;15.90;47.60;;;;;;5087246;27;45242;-65
2023/03/19 08:47:06;;;;;;;1.00;0.90;;;15.90;47.50;;;;;;5088058;27;45243;-65
2023/03/19 08:49:33;;;;;;;0.90;0.90;;;16.00;47.50;;;;;;5087724;27;45629;-65
2023/03/19 08:52:00;;;;;;;1.15;0.80;;;16.00;47.30;;;;;;5087308;27;45253;-65
2023/03/19 08:54:27;;;;;;;1.88;0.88;;;16.00;47.30;;;;;;5087516;27;45437;-66
2023/03/19 08:56:54;;;;;;;0.80;0.77;;;16.10;47.40;;;;;;5087728;27;45367;-66
2023/03/19 08:59:21;;;;;;;1.10;1.00;;;16.10;47.40;;;;;;5087998;27;45313;-67
2023/03/19 09:01:52;;;;;;;0.90;0.90;;;16.10;47.40;;;;;;5087193;27;45490;-66
2023/03/19 09:04:19;;;;;;;0.90;0.90;;;16.10;47.40;;;;;;5087489;27;45308;-65
2023/03/19 09:06:49;;;;;;;2.13;0.88;;;16.10;47.40;;;;;;5087486;27;45369;-65
2023/03/19 09:09:16;;;;;;;1.33;1.23;;;16.10;47.50;;;;;;5087503;28;45399;-66
2023/03/19 09:11:43;;;;;;;1.50;1.08;;;16.10;47.50;;;;;;5084569;27;45385;-65
2023/03/19 09:14:11;;;;;;;1.10;0.95;;;16.20;47.50;;;;;;5087154;27;45227;-68
2023/03/19 09:16:38;;;;;;;0.85;0.85;;;16.20;47.50;;;;;;5087334;27;45292;-66
2023/03/19 09:19:06;;;;;;;3.55;0.88;;;16.20;47.50;;;;;;5076971;27;45302;-65
2023/03/19 09:21:33;;;;;;;0.85;0.85;;;16.20;47.60;;;;;;5083297;28;46415;-65
2023/03/19 09:24:00;;;;;;;1.70;1.10;;;16.20;47.60;;;;;;5069278;27;45239;-66
2023/03/19 09:26:26;;;;;;;1.38;0.93;;;16.20;47.60;;;;;;5075658;28;45264;-65
2023/03/19 09:28:53;;;;;;;0.95;0.95;;;16.30;47.60;;;;;;5074587;28;45232;-66
2023/03/19 09:31:20;;;;;;;0.90;0.90;;;16.30;47.70;;;;;;5079741;27;45435;-65
2023/03/19 09:33:47;;;;;;;1.10;1.00;;;16.30;47.60;;;;;;5082320;27;45356;-65
2023/03/19 09:36:15;;;;;;;1.10;1.00;;;16.30;47.80;;;;;;5086872;27;45249;-65
2023/03/19 09:38:42;;;;;;;1.63;1.20;;;16.30;47.80;;;;;;5079979;27;45463;-67
2023/03/19 09:41:10;;;;;;;1.35;1.00;;;16.30;47.70;;;;;;5086457;27;45479;-65
2023/03/19 09:43:55;;;;;;;1.20;1.10;;;16.40;47.80;;;;;;5086630;27;45309;-65
2023/03/19 09:46:23;;;;;;;2.63;1.20;;;16.40;48.50;;;;;;5084216;27;45394;-67
2023/03/19 09:48:52;;;;;;;1.13;1.10;;;16.40;47.70;;;;;;5086881;27;45273;-68
2023/03/19 09:51:23;;;;;;;1.02;1.02;;;16.40;47.70;;;;;;5086250;27;48030;-67
2023/03/19 09:53:52;;;;;;;0.80;0.80;;;16.40;47.70;;;;;;5086612;27;45258;-67
2023/03/19 09:56:19;;;;;;;1.60;1.00;;;16.40;47.50;;;;;;5085113;27;45264;-65
2023/03/19 09:58:46;;;;;;;0.93;0.93;;;16.50;47.60;;;;;;5086755;27;45295;-67
2023/03/19 10:01:23;;;;;;;1.20;1.10;;;16.50;47.30;;;;;;5086327;28;45433;-66
2023/03/19 10:04:01;;;;;;;1.67;1.35;;;16.50;47.30;;;;;;5081849;27;45428;-68
2023/03/19 10:06:31;;;;;;;1.42;1.20;;;16.50;47.20;;;;;;5070005;28;45320;-67
2023/03/19 10:09:25;;;;;;;3.38;1.50;;;16.60;47.30;;;;;;5066392;28;45439;-68
2023/03/19 10:11:58;;;;;;;2.97;1.50;;;16.60;47.30;;;;;;5080663;28;45540;-68
2023/03/19 10:14:59;;;;;;;1.33;1.20;;;16.60;47.40;;;;;;5071419;27;45509;-67
2023/03/19 10:17:27;;;;;;;2.17;1.63;;;16.60;47.30;;;;;;5062154;27;45409;-68
2023/03/19 10:19:56;;;;;;;2.83;1.55;;;16.60;47.40;;;;;;5066494;28;45273;-67
2023/03/19 10:22:27;;;;;;;1.85;1.50;;;16.70;47.40;;;;;;5065759;28;45369;-66
2023/03/19 10:24:54;;;;;;;3.05;1.55;;;16.70;47.50;;;;;;5065772;28;45507;-67
2023/03/19 10:27:22;;;;;;;1.95;1.60;;;16.70;47.50;;;;;;5065973;28;45158;-67
2023/03/19 10:29:48;;;;;;;1.90;1.50;;;16.70;47.50;;;;;;5066132;28;45483;-67
2023/03/19 10:32:18;;;;;;;1.77;1.40;;;16.70;47.50;;;;;;5065637;28;45318;-67
2023/03/19 10:34:47;;;;;;;1.85;1.40;;;16.70;47.50;;;;;;5065725;28;45368;-67
2023/03/19 10:37:15;;;;;;;2.67;1.77;;;16.80;47.50;;;;;;5065785;28;45427;-68
2023/03/19 10:39:45;;;;;;;1.77;1.65;;;16.80;47.50;;;;;;5066086;28;45270;-67
2023/03/19 10:42:36;;;;;;;2.47;1.65;;;16.90;47.50;;;;;;5065402;28;46729;-68
2023/03/19 10:45:05;;;;;;;2.03;1.77;;;16.90;47.40;;;;;;5081350;28;45378;-67
2023/03/19 10:47:37;;;;;;;1.70;1.60;;;16.90;47.50;;;;;;5086075;27;45301;-67
2023/03/19 10:50:05;;;;;;;1.50;1.40;;;17.00;47.40;;;;;;5086193;27;45287;-67
2023/03/19 10:52:33;;;;;;;4.22;1.50;;;17.00;47.50;;;;;;5085485;27;46425;-67
2023/03/19 10:55:03;;;;;;;3.33;2.05;;;17.00;47.40;;;;;;5085615;27;45394;-67
2023/03/19 10:57:30;;;;;;;1.50;1.40;;;17.00;47.40;;;;;;5085696;27;45344;-67
2023/03/19 11:00:02;;;;;;;1.80;1.67;;;17.10;47.40;;;;;;5085945;27;45380;-67
2023/03/19 11:02:30;;;;;;;1.50;1.40;;;17.10;47.40;;;;;;5085304;27;48899;-68
2023/03/19 11:05:09;;;;;;;2.00;1.48;;;17.20;47.40;;;;;;5085428;27;45536;-67
2023/03/19 11:07:36;;;;;;;2.38;1.55;;;17.20;47.40;;;;;;5085071;28;45328;-68
2023/03/19 11:10:05;;;;;;;2.05;1.50;;;17.20;47.30;;;;;;5086075;27;45265;-67
2023/03/19 11:12:33;;;;;;;1.60;1.45;;;17.20;47.40;;;;;;5085295;27;46346;-67
2023/03/19 11:15:02;;;;;;;1.38;1.27;;;17.20;47.40;;;;;;5085297;27;45378;-67
2023/03/19 11:17:36;;;;;;;1.73;1.40;;;17.20;47.40;;;;;;5085553;27;45321;-67
2023/03/19 11:20:18;;;;;;;2.92;1.48;;;17.30;47.50;;;;;;5085858;27;45238;-67
2023/03/19 11:22:44;;;;;;;2.92;1.60;;;17.30;47.50;;;;;;5085045;27;45454;-68
2023/03/19 11:25:18;;;;;;;2.17;1.42;;;17.30;47.50;;;;;;5085342;27;45840;-67
2023/03/19 11:27:45;;;;;;;2.00;1.40;;;17.30;47.50;;;;;;5085383;27;45284;-67
2023/03/19 11:30:14;;;;;;;2.53;1.70;;;17.40;48.20;;;;;;5085511;27;45268;-67
2023/03/19 11:32:58;;;;;;;2.65;1.85;;;17.40;47.60;;;;;;5084660;27;45488;-68
2023/03/19 11:35:27;;;;;;;1.45;1.27;;;17.30;47.50;;;;;;5085138;27;45119;-68
2023/03/19 11:37:55;;;;;;;1.73;1.63;;;17.40;47.60;;;;;;5085123;28;45497;-67
2023/03/19 11:40:32;;;;;;;2.85;1.70;;;17.40;47.60;;;;;;5085387;27;45329;-67
2023/03/19 11:43:12;;;;;;;2.65;1.60;;;17.40;47.70;;;;;;5084962;27;46614;-67
2023/03/19 11:45:40;;;;;;;1.92;1.60;;;17.50;47.80;;;;;;5064784;28;45426;-67
2023/03/19 11:48:20;;;;;;;3.60;1.45;;;17.50;47.80;;;;;;5064862;28;45389;-67
2023/03/19 11:50:50;;;;;;;2.08;1.30;;;17.50;47.80;;;;;;5064970;28;45502;-67
2023/03/19 11:53:22;;;;;;;3.20;1.80;;;17.50;47.80;;;;;;5064502;28;46462;-67
2023/03/19 11:55:53;;;;;;;1.27;1.17;;;17.50;47.80;;;;;;5064373;28;45392;-67
2023/03/19 11:58:34;;;;;;;1.25;1.17;;;17.50;47.90;;;;;;5064891;28;45245;-68
2023/03/19 12:01:02;;;;;;;2.00;1.30;;;17.50;47.90;;;;;;5064449;28;45561;-66
2023/03/19 12:03:53;;;;;;;4.75;1.40;;;17.50;47.90;;;;;;5064492;28;49127;-66
2023/03/19 12:06:25;;;;;;;2.03;1.35;;;17.50;47.90;;;;;;5064368;28;45298;-66
2023/03/19 12:08:55;;;;;;;1.58;1.25;;;17.50;47.90;;;;;;5064667;28;45199;-67
2023/03/19 12:11:24;;;;;;;2.22;1.58;;;17.50;47.90;;;;;;5064681;28;45348;-66
2023/03/19 12:14:09;;;;;;;2.17;1.30;;;17.60;47.90;;;;;;5064436;28;45489;-67
2023/03/19 12:16:50;;;;;;;1.33;1.23;;;17.60;47.90;;;;;;5064371;28;45244;-67
2023/03/19 12:19:35;;;;;;;2.05;1.50;;;17.60;47.90;;;;;;5066197;28;45333;-66
2023/03/19 12:22:08;;;;;;;2.03;1.40;;;17.60;47.90;;;;;;5064979;28;45492;-67
2023/03/19 12:24:41;;;;;;;1.58;1.48;;;17.60;47.90;;;;;;5067520;28;46386;-66
2023/03/19 12:27:18;;;;;;;1.35;1.25;;;17.60;47.90;;;;;;5067579;28;45207;-67
2023/03/19 12:29:47;;;;;;;2.15;1.48;;;17.60;48.00;;;;;;5067774;28;45458;-66
2023/03/19 12:32:20;;;;;;;1.50;1.40;;;17.60;48.00;;;;;;5067855;28;45364;-67
2023/03/19 12:34:48;;;;;;;2.40;1.50;;;17.60;48.00;;;;;;5067571;28;46680;-66
2023/03/19 12:37:18;;;;;;;1.70;1.33;;;17.60;48.00;;;;;;5067543;28;45261;-67
2023/03/19 12:39:50;;;;;;;2.20;1.33;;;17.60;48.00;;;;;;5067845;28;45376;-67
2023/03/19 12:42:18;;;;;;;1.90;1.40;;;17.60;48.10;;;;;;5077241;28;45547;-69
2023/03/19 12:44:46;;;;;;;2.33;1.50;;;17.60;48.10;;;;;;5081695;27;47263;-69
2023/03/19 12:47:14;;;;;;;3.13;1.30;;;17.60;48.60;;;;;;5081827;27;45134;-66
2023/03/19 12:49:42;;;;;;;2.08;1.40;;;17.60;49.20;;;;;;5085860;27;45313;-66
2023/03/19 12:52:15;;;;;;;4.90;1.65;;;17.70;48.60;;;;;;5082634;27;45408;-66
2023/03/19 12:54:43;;;;;;;1.75;1.52;;;17.60;48.60;;;;;;5087526;27;45310;-67